Time;durP1;ratioP1;P1;durP2;ratioP2;P2;SDS_P1;SDS_P2;PMS_P1;PMS_P2;Temp;Humidity;BMP_temperature;BMP_pressure;BME280_temperature;BME280_humidity;BME280_pressure;Samples;Min_cycle;Max_cycle;Signal;HPM_P1;HPM_P2
2022/03/17 00:01:43;;;;;;;48.83;42.63;;;9.50;99.90;;;;;;5014403;28;20174;-73
2022/03/17 00:04:08;;;;;;;38.47;34.40;;;9.60;99.90;;;;;;5015432;28;20167;-73
2022/03/17 00:06:34;;;;;;;34.20;30.73;;;9.60;99.90;;;;;;5014974;28;20684;-73
2022/03/17 00:09:01;;;;;;;37.07;33.07;;;9.60;99.90;;;;;;5013847;28;20203;-73
2022/03/17 00:11:28;;;;;;;38.37;34.30;;;9.60;99.90;;;;;;5015610;28;20405;-73
2022/03/17 00:13:54;;;;;;;32.93;29.60;;;9.60;99.90;;;;;;5015559;28;20403;-73
2022/03/17 00:16:19;;;;;;;31.53;28.30;;;9.50;99.90;;;;;;5015488;28;20437;-73
2022/03/17 00:18:45;;;;;;;33.37;30.07;;;9.60;99.90;;;;;;5014543;28;20211;-73
2022/03/17 00:21:10;;;;;;;37.27;33.37;;;9.70;99.90;;;;;;5015562;28;20221;-73
2022/03/17 00:23:36;;;;;;;33.03;29.57;;;9.50;99.90;;;;;;5015726;28;20175;-73
2022/03/17 00:26:01;;;;;;;33.70;30.03;;;9.50;99.90;;;;;;5007750;28;20747;-73
2022/03/17 00:28:27;;;;;;;34.87;31.37;;;9.50;99.90;;;;;;4995827;28;20574;-73
2022/03/17 00:30:52;;;;;;;38.23;33.97;;;9.50;99.90;;;;;;4995368;28;20168;-72
2022/03/17 00:33:18;;;;;;;33.13;29.30;;;9.50;99.90;;;;;;4995886;28;20203;-74
2022/03/17 00:35:44;;;;;;;33.87;30.30;;;9.50;99.90;;;;;;5007635;28;20169;-74
2022/03/17 00:38:14;;;;;;;34.13;30.40;;;9.60;99.90;;;;;;5015052;28;20542;-73
2022/03/17 00:40:41;;;;;;;35.60;31.70;;;9.50;99.90;;;;;;5015425;28;20536;-74
2022/03/17 00:43:09;;;;;;;37.00;32.27;;;9.40;99.90;;;;;;5014305;28;20826;-73
2022/03/17 00:45:35;;;;;;;33.00;29.00;;;9.30;99.90;;;;;;5015695;28;20417;-73
2022/03/17 00:48:01;;;;;;;34.87;31.10;;;9.30;99.90;;;;;;5001595;28;20789;-74
2022/03/17 00:50:27;;;;;;;34.20;30.70;;;9.40;99.90;;;;;;4987532;28;20838;-73
2022/03/17 00:52:53;;;;;;;35.07;31.33;;;9.50;99.90;;;;;;4998435;28;20445;-73
2022/03/17 00:55:20;;;;;;;36.53;32.67;;;9.50;99.90;;;;;;5014795;28;20171;-72
2022/03/17 00:57:47;;;;;;;35.77;31.90;;;9.40;99.90;;;;;;5014705;28;20315;-73
2022/03/17 01:00:16;;;;;;;36.07;32.47;;;9.40;99.90;;;;;;5014758;28;20917;-74
2022/03/17 01:02:47;;;;;;;35.33;31.53;;;9.40;99.90;;;;;;5014657;28;20929;-74
2022/03/17 01:05:13;;;;;;;32.80;29.27;;;9.40;99.90;;;;;;5014614;28;20411;-74
2022/03/17 01:07:40;;;;;;;36.30;32.47;;;9.40;99.90;;;;;;5014057;28;20934;-74
2022/03/17 01:10:07;;;;;;;35.00;30.67;;;9.40;99.90;;;;;;5014612;28;20418;-73
2022/03/17 01:12:33;;;;;;;36.10;32.50;;;9.50;99.90;;;;;;5014451;28;20451;-74
2022/03/17 01:14:59;;;;;;;32.80;29.17;;;9.50;99.90;;;;;;5014542;28;20411;-73
2022/03/17 01:17:25;;;;;;;31.00;27.60;;;9.50;99.90;;;;;;5014411;28;20419;-74
2022/03/17 01:19:51;;;;;;;36.00;32.13;;;9.50;99.90;;;;;;5014970;28;20938;-74
2022/03/17 01:22:17;;;;;;;35.60;31.87;;;9.60;99.90;;;;;;5014114;28;20407;-73
2022/03/17 01:24:43;;;;;;;36.13;31.07;;;9.50;99.90;;;;;;5014540;28;20285;-73
2022/03/17 01:27:09;;;;;;;36.43;32.37;;;9.30;99.90;;;;;;5014230;28;20186;-74
2022/03/17 01:29:35;;;;;;;34.00;30.37;;;9.30;99.90;;;;;;5014177;28;20409;-74
2022/03/17 01:32:00;;;;;;;34.17;30.57;;;9.30;99.90;;;;;;5014385;28;20204;-74
2022/03/17 01:34:26;;;;;;;35.87;32.10;;;9.30;99.90;;;;;;5014114;28;20312;-73
2022/03/17 01:36:52;;;;;;;37.17;33.03;;;9.30;99.90;;;;;;5013954;28;20206;-72
2022/03/17 01:39:17;;;;;;;37.73;33.73;;;9.30;99.90;;;;;;5013728;28;20180;-74
2022/03/17 01:41:43;;;;;;;39.27;33.43;;;9.30;99.90;;;;;;5013126;28;20215;-73
2022/03/17 01:44:08;;;;;;;35.80;31.87;;;9.10;99.90;;;;;;5014057;28;20170;-74
2022/03/17 01:47:26;;;;;;;31.87;28.47;;;9.20;99.90;;;;;;5013894;28;20186;-74
2022/03/17 01:49:20;;;;;;;41.10;34.13;;;9.20;99.90;;;;;;5012279;28;20178;-74
2022/03/17 01:51:47;;;;;;;36.43;32.60;;;9.10;99.90;;;;;;5012430;28;20468;-74
2022/03/17 01:54:14;;;;;;;32.47;28.97;;;9.10;99.90;;;;;;5012362;28;20948;-74
2022/03/17 01:56:41;;;;;;;36.83;32.80;;;9.20;99.90;;;;;;5013961;28;20972;-74
2022/03/17 01:59:06;;;;;;;35.67;31.10;;;9.30;99.90;;;;;;5013411;28;20609;-74
2022/03/17 02:01:32;;;;;;;35.17;31.40;;;9.30;99.90;;;;;;5014098;28;20437;-74
2022/03/17 02:03:58;;;;;;;39.30;33.43;;;9.30;99.90;;;;;;5013511;28;20199;-74
2022/03/17 02:06:24;;;;;;;39.87;35.60;;;9.30;99.90;;;;;;5013620;28;20433;-74
2022/03/17 02:08:50;;;;;;;37.57;33.57;;;9.30;99.90;;;;;;5013446;28;20401;-73
2022/03/17 02:13:59;;;;;;;39.73;35.03;;;9.10;99.90;;;;;;5013704;28;20243;-74
2022/03/17 02:16:27;;;;;;;36.47;32.57;;;9.00;99.90;;;;;;5013377;28;20860;-74
2022/03/17 02:18:53;;;;;;;39.23;34.97;;;9.00;99.90;;;;;;5013856;28;20259;-73
2022/03/17 02:21:19;;;;;;;39.23;34.67;;;9.00;99.90;;;;;;5013236;28;20930;-74
2022/03/17 02:26:31;;;;;;;42.47;36.03;;;9.00;99.90;;;;;;5013394;28;20215;-74
2022/03/17 02:28:58;;;;;;;34.90;31.20;;;9.00;99.90;;;;;;4998448;28;20417;-74
2022/03/17 02:31:24;;;;;;;39.83;35.60;;;8.90;99.90;;;;;;4993197;28;20441;-74
2022/03/17 02:33:51;;;;;;;41.50;35.30;;;9.00;99.90;;;;;;4993681;28;20533;-74
2022/03/17 02:36:18;;;;;;;39.57;34.23;;;8.90;99.90;;;;;;4993495;28;20454;-74
2022/03/17 02:38:44;;;;;;;40.57;36.23;;;9.00;99.90;;;;;;4993230;28;20406;-74
2022/03/17 02:41:21;;;;;;;40.73;34.90;;;9.00;99.90;;;;;;4993695;28;20418;-74
2022/03/17 02:43:49;;;;;;;39.70;34.80;;;9.00;99.90;;;;;;4991128;28;20430;-74
2022/03/17 02:46:15;;;;;;;39.73;34.40;;;9.00;99.90;;;;;;4993195;28;20572;-74
2022/03/17 02:48:40;;;;;;;40.20;35.90;;;9.00;99.90;;;;;;4993442;28;20501;-74
2022/03/17 02:51:06;;;;;;;42.73;36.30;;;9.00;99.90;;;;;;4993509;28;20173;-74
2022/03/17 02:53:32;;;;;;;36.93;32.77;;;9.00;99.90;;;;;;5002052;28;20192;-74
2022/03/17 02:55:57;;;;;;;40.13;35.60;;;9.10;99.90;;;;;;5012722;28;20186;-74
2022/03/17 02:58:23;;;;;;;42.30;35.30;;;9.10;99.90;;;;;;5012980;28;20178;-74
2022/03/17 03:00:48;;;;;;;37.80;33.77;;;9.10;99.90;;;;;;5011707;28;20262;-74
2022/03/17 03:03:17;;;;;;;40.97;35.17;;;9.10;99.90;;;;;;5012678;28;20547;-74
2022/03/17 03:05:43;;;;;;;38.53;34.40;;;9.10;99.90;;;;;;5012922;28;20177;-74
2022/03/17 03:08:09;;;;;;;37.70;33.67;;;9.10;99.90;;;;;;5012751;28;20448;-74
2022/03/17 03:10:35;;;;;;;38.07;33.87;;;9.20;99.90;;;;;;5012859;28;20491;-74
2022/03/17 03:13:01;;;;;;;40.67;36.43;;;9.30;99.90;;;;;;5012790;28;20553;-74
2022/03/17 03:15:26;;;;;;;39.23;35.17;;;9.40;99.90;;;;;;5011322;28;20170;-74
2022/03/17 03:17:54;;;;;;;41.80;35.47;;;9.30;99.90;;;;;;5012370;28;20584;-74
2022/03/17 03:20:20;;;;;;;41.17;36.63;;;9.30;99.90;;;;;;5012757;28;20226;-74
2022/03/17 03:22:46;;;;;;;41.97;36.00;;;9.50;99.90;;;;;;5012784;28;20414;-73
2022/03/17 03:25:12;;;;;;;43.90;36.40;;;9.60;99.90;;;;;;5011243;28;20551;-74
2022/03/17 03:27:40;;;;;;;41.90;35.67;;;9.50;99.90;;;;;;5011078;28;20210;-74
2022/03/17 03:30:11;;;;;;;43.33;38.73;;;9.60;99.90;;;;;;5012701;28;20915;-74
2022/03/17 03:32:39;;;;;;;45.10;36.73;;;9.60;99.90;;;;;;5013428;28;20437;-74
2022/03/17 03:37:22;;;;;;;40.40;36.00;;;9.60;99.90;;;;;;5013625;28;20418;-73
2022/03/17 03:37:51;;;;;;;38.97;34.77;;;9.70;99.90;;;;;;5012727;28;20896;-73
2022/03/17 03:40:17;;;;;;;39.77;35.50;;;9.90;99.90;;;;;;5004924;28;20510;-73
2022/03/17 03:42:42;;;;;;;38.13;33.87;;;9.90;99.90;;;;;;4984210;28;20529;-73
2022/03/17 03:45:08;;;;;;;38.77;34.53;;;9.90;99.90;;;;;;4992547;28;20179;-74
2022/03/17 03:47:34;;;;;;;40.80;36.40;;;9.90;99.90;;;;;;4992340;28;20676;-74
2022/03/17 03:50:00;;;;;;;39.00;34.73;;;9.80;99.90;;;;;;4992686;28;20429;-73
2022/03/17 03:52:25;;;;;;;39.93;34.50;;;9.70;99.90;;;;;;4992890;28;20639;-73
2022/03/17 03:54:51;;;;;;;43.23;38.20;;;9.80;99.90;;;;;;5009544;28;20257;-73
2022/03/17 03:57:16;;;;;;;41.60;36.70;;;9.70;99.90;;;;;;5011272;28;20261;-73
2022/03/17 03:59:42;;;;;;;38.17;32.73;;;9.60;99.90;;;;;;5011421;28;20590;-73
2022/03/17 04:02:10;;;;;;;42.20;36.37;;;9.60;99.90;;;;;;5010556;28;20183;-73
2022/03/17 04:04:40;;;;;;;38.13;32.00;;;9.60;99.90;;;;;;5013484;28;20656;-73
2022/03/17 04:07:11;;;;;;;41.70;35.00;;;9.70;99.90;;;;;;5014978;28;20453;-72
2022/03/17 04:09:39;;;;;;;36.80;32.77;;;9.60;99.90;;;;;;5015980;28;20386;-74
2022/03/17 04:12:07;;;;;;;40.40;35.97;;;9.60;99.90;;;;;;5015764;28;20942;-74
2022/03/17 04:14:33;;;;;;;40.67;36.27;;;9.50;99.90;;;;;;5015725;28;20482;-74
2022/03/17 04:16:59;;;;;;;40.30;35.10;;;9.60;99.90;;;;;;5015188;28;20961;-74
2022/03/17 04:19:27;;;;;;;37.60;33.53;;;9.70;99.90;;;;;;5015636;28;20720;-74
2022/03/17 04:21:52;;;;;;;39.00;34.00;;;9.70;99.90;;;;;;5015828;28;20418;-74
2022/03/17 04:24:19;;;;;;;37.03;33.03;;;9.70;99.90;;;;;;5015840;28;20425;-74
2022/03/17 04:26:46;;;;;;;46.10;37.30;;;9.70;99.90;;;;;;5016083;28;20445;-74
2022/03/17 04:29:13;;;;;;;37.97;33.87;;;9.70;99.90;;;;;;5016280;28;20774;-74
2022/03/17 04:31:40;;;;;;;39.60;34.77;;;9.70;99.90;;;;;;5000949;28;20447;-73
2022/03/17 04:34:06;;;;;;;40.27;35.63;;;9.70;99.90;;;;;;4996812;28;20412;-74
2022/03/17 04:36:32;;;;;;;43.00;35.70;;;9.80;99.90;;;;;;5003692;28;20480;-73
2022/03/17 04:38:59;;;;;;;37.63;32.47;;;9.70;99.90;;;;;;5011271;22;20498;-70
2022/03/17 04:41:25;;;;;;;39.50;35.10;;;9.80;99.90;;;;;;5015299;28;20402;-70
2022/03/17 04:43:50;;;;;;;40.80;36.27;;;9.70;99.90;;;;;;5015512;28;20387;-69
2022/03/17 04:46:16;;;;;;;43.70;36.87;;;9.70;99.90;;;;;;5015412;28;20645;-70
2022/03/17 04:48:42;;;;;;;39.40;35.20;;;9.60;99.90;;;;;;5015335;28;20239;-69
2022/03/17 04:51:08;;;;;;;44.30;38.20;;;9.60;99.90;;;;;;5014126;28;20233;-70
2022/03/17 04:53:34;;;;;;;42.30;36.97;;;9.70;99.90;;;;;;5014008;28;20449;-70
2022/03/17 04:56:05;;;;;;;38.70;34.43;;;9.70;99.90;;;;;;5015515;28;20414;-69
2022/03/17 04:58:32;;;;;;;39.40;34.30;;;9.70;99.90;;;;;;5015473;28;20921;-70
2022/03/17 05:00:59;;;;;;;40.30;36.00;;;9.70;99.90;;;;;;5015239;28;20813;-69
2022/03/17 05:03:26;;;;;;;40.50;36.10;;;9.60;99.90;;;;;;5015416;28;20438;-70
2022/03/17 05:05:52;;;;;;;38.43;33.83;;;9.50;99.90;;;;;;5015038;28;20412;-70
2022/03/17 05:08:18;;;;;;;36.10;32.07;;;9.60;99.90;;;;;;5014589;28;20938;-70
2022/03/17 05:10:45;;;;;;;38.07;32.77;;;9.70;99.90;;;;;;5015270;28;20419;-70
2022/03/17 05:13:12;;;;;;;39.10;34.33;;;9.70;99.90;;;;;;5015069;28;20541;-70
2022/03/17 05:15:38;;;;;;;39.80;35.50;;;9.70;99.90;;;;;;5015130;28;20436;-70
2022/03/17 05:18:06;;;;;;;36.70;31.77;;;9.70;99.90;;;;;;5014990;28;20398;-69
2022/03/17 05:20:36;;;;;;;39.00;34.83;;;9.60;99.90;;;;;;5014906;28;20458;-70
2022/03/17 05:23:08;;;;;;;35.67;30.77;;;9.80;99.90;;;;;;5014652;28;20962;-70
2022/03/17 05:25:34;;;;;;;42.30;36.83;;;9.90;99.90;;;;;;5015118;28;20394;-70
2022/03/17 05:28:00;;;;;;;39.73;34.10;;;9.90;99.90;;;;;;5015035;28;20569;-70
2022/03/17 05:30:27;;;;;;;42.60;35.63;;;9.90;99.90;;;;;;5014807;28;20450;-69
2022/03/17 05:32:53;;;;;;;40.97;36.50;;;9.90;99.90;;;;;;5014700;28;20533;-69
2022/03/17 05:35:19;;;;;;;34.13;30.43;;;9.90;99.90;;;;;;5014550;28;20422;-69
2022/03/17 05:37:45;;;;;;;38.87;32.67;;;9.90;99.90;;;;;;5013203;28;20422;-69
2022/03/17 05:40:15;;;;;;;39.00;33.50;;;9.60;99.90;;;;;;5014224;28;20500;-70
2022/03/17 05:42:55;;;;;;;38.03;32.70;;;9.50;99.90;;;;;;5015563;28;20868;-70
2022/03/17 05:45:26;;;;;;;43.10;35.70;;;9.60;99.90;;;;;;5014878;28;20492;-71
2022/03/17 05:47:57;;;;;;;42.07;35.47;;;9.70;99.90;;;;;;5015463;28;20402;-72
2022/03/17 05:50:26;;;;;;;42.83;35.70;;;9.70;99.90;;;;;;5014906;28;20456;-71
2022/03/17 05:52:52;;;;;;;44.07;37.33;;;9.70;99.90;;;;;;5014360;28;20443;-71
2022/03/17 05:55:24;;;;;;;41.73;35.97;;;9.60;99.90;;;;;;5011896;28;20473;-71
2022/03/17 05:57:52;;;;;;;36.47;31.37;;;9.60;99.90;;;;;;5014390;28;20421;-71
2022/03/17 06:00:23;;;;;;;35.77;30.37;;;9.60;99.90;;;;;;5014650;28;20419;-71
2022/03/17 06:02:49;;;;;;;38.20;32.93;;;9.70;99.90;;;;;;5013847;28;20403;-71
2022/03/17 06:05:15;;;;;;;37.77;31.87;;;9.80;99.90;;;;;;5014328;28;20391;-72
2022/03/17 06:07:46;;;;;;;42.00;36.60;;;9.90;99.90;;;;;;5014192;28;20496;-72
2022/03/17 06:10:23;;;;;;;37.13;32.53;;;9.90;99.90;;;;;;5013700;28;20205;-71
2022/03/17 06:12:53;;;;;;;42.37;35.23;;;9.90;99.90;;;;;;5014009;28;20434;-72
2022/03/17 06:15:20;;;;;;;39.43;34.93;;;9.90;99.90;;;;;;5013829;28;20779;-72
2022/03/17 06:17:56;;;;;;;42.63;34.90;;;10.00;99.90;;;;;;5013817;28;20762;-71
2022/03/17 06:20:25;;;;;;;41.00;34.93;;;9.90;99.90;;;;;;5014108;28;20938;-72
2022/03/17 06:22:52;;;;;;;40.40;33.67;;;10.00;99.90;;;;;;5013782;28;20417;-71
2022/03/17 06:25:20;;;;;;;42.20;35.53;;;10.00;99.90;;;;;;5013440;28;20416;-71
2022/03/17 06:27:48;;;;;;;46.60;34.53;;;10.00;99.90;;;;;;5013004;28;20407;-72
2022/03/17 06:30:19;;;;;;;38.17;34.17;;;10.00;99.90;;;;;;5013533;28;20522;-71
2022/03/17 06:32:45;;;;;;;44.10;36.27;;;10.10;99.90;;;;;;5013208;28;20453;-71
2022/03/17 06:35:20;;;;;;;36.43;30.83;;;10.20;99.90;;;;;;5013847;28;20927;-72
2022/03/17 06:37:53;;;;;;;41.47;36.23;;;10.40;99.90;;;;;;5010472;28;20400;-72
2022/03/17 06:40:20;;;;;;;40.00;33.30;;;10.40;99.90;;;;;;5012921;28;20443;-71
2022/03/17 06:42:47;;;;;;;44.47;36.20;;;10.40;99.90;;;;;;5013503;28;20415;-72
2022/03/17 06:45:13;;;;;;;40.63;35.47;;;10.50;99.90;;;;;;5013900;28;20407;-71
2022/03/17 06:47:39;;;;;;;41.20;33.80;;;10.60;99.90;;;;;;5013913;28;20428;-70
2022/03/17 06:50:06;;;;;;;50.83;38.67;;;10.60;99.90;;;;;;5012963;28;20511;-72
2022/03/17 06:52:32;;;;;;;37.83;33.37;;;10.80;99.90;;;;;;5013070;28;20448;-73
2022/03/17 06:54:58;;;;;;;37.20;32.43;;;10.80;99.90;;;;;;5011949;28;20932;-71
2022/03/17 06:57:23;;;;;;;43.23;37.63;;;10.90;99.90;;;;;;5013262;28;20160;-71
2022/03/17 06:59:50;;;;;;;39.57;34.23;;;11.00;99.90;;;;;;5012408;28;20198;-71
2022/03/17 07:02:16;;;;;;;45.67;38.13;;;10.80;99.90;;;;;;5013319;28;20183;-72
2022/03/17 07:04:43;;;;;;;41.40;36.43;;;10.70;99.90;;;;;;5013377;28;20407;-71
2022/03/17 07:07:09;;;;;;;42.33;36.60;;;10.70;99.90;;;;;;5012290;28;20459;-71
2022/03/17 07:09:35;;;;;;;39.40;35.27;;;10.70;99.90;;;;;;5031895;23;20523;-71
2022/03/17 07:12:02;;;;;;;41.47;36.83;;;10.90;99.90;;;;;;5007488;28;20447;-71
2022/03/17 07:14:28;;;;;;;38.87;34.67;;;11.00;99.90;;;;;;5012649;28;20413;-71
2022/03/17 07:16:53;;;;;;;42.70;37.50;;;11.10;99.90;;;;;;5011618;28;20469;-72
2022/03/17 07:19:19;;;;;;;40.07;35.67;;;11.10;99.90;;;;;;5012554;28;20224;-73
2022/03/17 07:24:32;;;;;;;44.77;38.93;;;11.40;99.90;;;;;;5003989;28;20277;-69
2022/03/17 07:26:59;;;;;;;44.20;38.80;;;11.40;99.90;;;;;;4995230;28;20407;-70
2022/03/17 07:29:25;;;;;;;42.77;35.43;;;11.40;99.90;;;;;;4996245;28;20205;-70
2022/03/17 07:31:54;;;;;;;41.10;36.70;;;11.40;99.90;;;;;;5013423;28;20485;-70
2022/03/17 07:34:20;;;;;;;40.30;34.60;;;11.50;99.90;;;;;;5013092;28;20439;-69
2022/03/17 07:36:45;;;;;;;40.03;35.70;;;11.50;99.90;;;;;;5012929;28;20462;-71
2022/03/17 07:39:11;;;;;;;41.67;37.17;;;11.50;99.90;;;;;;5043325;23;21745;-72
2022/03/17 07:41:37;;;;;;;38.73;34.40;;;11.60;99.90;;;;;;5004624;28;20583;-72
2022/03/17 07:44:03;;;;;;;41.70;36.03;;;11.70;99.90;;;;;;5016937;28;20698;-72
2022/03/17 07:46:29;;;;;;;40.97;36.50;;;11.80;99.90;;;;;;5024867;28;20195;-72
2022/03/17 07:48:55;;;;;;;38.47;34.33;;;11.90;99.90;;;;;;5034659;28;20838;-72
2022/03/17 07:51:21;;;;;;;41.43;36.37;;;11.80;99.90;;;;;;5015862;28;20583;-69
2022/03/17 07:53:47;;;;;;;45.90;40.03;;;11.70;99.90;;;;;;5006523;28;20258;-70
2022/03/17 07:56:13;;;;;;;43.17;38.23;;;11.70;99.90;;;;;;5009151;28;20527;-72
2022/03/17 07:58:39;;;;;;;39.93;35.53;;;11.60;99.90;;;;;;5016429;28;20427;-73
2022/03/17 08:01:05;;;;;;;40.00;35.67;;;11.70;99.90;;;;;;5016293;28;20430;-74
2022/03/17 08:03:31;;;;;;;42.17;36.57;;;11.80;99.90;;;;;;5016080;28;20406;-74
2022/03/17 08:05:57;;;;;;;42.13;37.53;;;11.80;99.90;;;;;;5016441;28;20183;-72
2022/03/17 08:08:23;;;;;;;41.77;35.63;;;11.70;99.90;;;;;;5015910;28;20415;-74
2022/03/17 08:10:49;;;;;;;41.43;36.93;;;11.40;99.90;;;;;;5014875;28;20430;-72
2022/03/17 08:13:14;;;;;;;41.77;34.17;;;11.20;99.90;;;;;;5015821;28;20253;-73
2022/03/17 08:15:41;;;;;;;44.90;37.43;;;11.30;99.90;;;;;;5014715;28;20178;-73
2022/03/17 08:18:07;;;;;;;42.80;35.23;;;11.60;99.90;;;;;;5015775;28;20168;-72
2022/03/17 08:20:38;;;;;;;38.70;34.10;;;11.70;99.90;;;;;;5014407;28;20815;-71
2022/03/17 08:23:04;;;;;;;38.83;34.00;;;12.00;99.90;;;;;;5015790;28;20859;-72
2022/03/17 08:25:29;;;;;;;43.87;37.83;;;12.10;99.90;;;;;;5015184;28;20438;-74
2022/03/17 08:27:55;;;;;;;39.03;34.50;;;12.20;99.90;;;;;;5027669;22;20587;-69
2022/03/17 08:30:21;;;;;;;43.83;38.10;;;12.00;99.90;;;;;;5014867;28;20168;-70
2022/03/17 08:32:48;;;;;;;41.27;36.73;;;12.10;99.90;;;;;;5016231;28;20267;-69
2022/03/17 08:35:14;;;;;;;43.27;36.00;;;12.20;99.90;;;;;;5015880;28;20406;-70
2022/03/17 08:37:42;;;;;;;38.43;34.23;;;12.20;99.90;;;;;;5008288;28;20420;-70
2022/03/17 08:40:09;;;;;;;42.10;35.63;;;12.40;99.90;;;;;;4996126;28;20391;-69
2022/03/17 08:42:35;;;;;;;44.33;39.43;;;12.50;99.90;;;;;;4996151;28;20414;-70
2022/03/17 08:45:01;;;;;;;39.77;34.50;;;12.70;99.90;;;;;;4995464;28;20412;-68
2022/03/17 08:50:12;;;;;;;40.97;36.50;;;12.80;99.90;;;;;;4984831;28;20415;-72
2022/03/17 08:52:38;;;;;;;39.40;34.77;;;12.60;99.90;;;;;;4995963;28;20806;-69
2022/03/17 08:55:04;;;;;;;41.23;36.63;;;12.60;99.90;;;;;;4996020;28;20168;-69
2022/03/17 08:57:29;;;;;;;39.43;34.50;;;12.50;99.90;;;;;;4994450;28;20236;-70
2022/03/17 08:59:55;;;;;;;39.03;34.57;;;12.60;99.90;;;;;;4996004;28;20170;-69
2022/03/17 09:02:21;;;;;;;40.13;35.53;;;12.60;99.90;;;;;;4996270;28;20195;-69
2022/03/17 09:04:46;;;;;;;44.63;38.20;;;12.50;99.90;;;;;;4995212;28;20462;-69
2022/03/17 09:07:12;;;;;;;40.47;35.70;;;12.60;99.90;;;;;;4995900;28;20193;-71
2022/03/17 09:09:38;;;;;;;39.53;35.30;;;12.70;99.90;;;;;;4996370;28;20260;-70
2022/03/17 09:12:08;;;;;;;40.20;35.73;;;12.40;99.90;;;;;;4995915;28;20185;-70
2022/03/17 09:14:44;;;;;;;39.63;35.30;;;12.40;99.90;;;;;;4995510;28;20463;-69
2022/03/17 09:17:09;;;;;;;41.70;37.43;;;12.50;99.90;;;;;;4995765;28;20764;-67
2022/03/17 09:19:37;;;;;;;40.23;33.43;;;12.70;99.90;;;;;;4994688;28;20496;-67
2022/03/17 09:22:03;;;;;;;40.73;36.03;;;12.80;99.90;;;;;;4995239;28;20679;-68
2022/03/17 09:24:30;;;;;;;39.80;35.50;;;12.80;99.90;;;;;;4994280;28;20416;-68
2022/03/17 09:26:56;;;;;;;38.73;34.63;;;12.80;99.90;;;;;;4994945;28;20637;-68
2022/03/17 09:29:22;;;;;;;39.13;34.43;;;13.20;99.90;;;;;;4995167;28;20552;-68
2022/03/17 09:31:49;;;;;;;42.43;36.37;;;13.30;99.90;;;;;;4994673;28;20438;-69
2022/03/17 09:34:14;;;;;;;39.43;33.13;;;13.40;99.90;;;;;;4995066;28;20162;-69
2022/03/17 09:36:40;;;;;;;42.33;32.37;;;13.50;99.90;;;;;;4995320;28;20426;-70
2022/03/17 09:41:50;;;;;;;35.73;31.93;;;13.60;99.90;;;;;;4995327;28;20227;-68
2022/03/17 09:44:15;;;;;;;35.50;31.70;;;13.60;99.90;;;;;;4995058;28;20927;-69
2022/03/17 09:46:45;;;;;;;43.83;36.53;;;13.70;99.90;;;;;;4994214;28;20168;-69
2022/03/17 09:49:11;;;;;;;42.00;35.17;;;13.90;99.90;;;;;;4994609;28;20175;-68
2022/03/17 09:51:37;;;;;;;38.30;33.13;;;13.90;99.90;;;;;;4995000;28;20494;-69
2022/03/17 09:54:03;;;;;;;39.90;35.70;;;14.00;99.90;;;;;;4993222;28;20414;-69
2022/03/17 09:56:29;;;;;;;38.10;33.37;;;14.10;99.90;;;;;;4994251;28;20771;-69
2022/03/17 09:58:56;;;;;;;40.03;34.30;;;14.00;99.90;;;;;;4993246;28;20271;-69
2022/03/17 10:01:23;;;;;;;39.60;34.73;;;14.00;99.90;;;;;;4994406;28;20199;-68
2022/03/17 10:03:49;;;;;;;38.80;32.17;;;14.00;99.90;;;;;;4994246;28;20405;-69
2022/03/17 10:06:18;;;;;;;37.67;32.50;;;14.00;99.90;;;;;;4994759;28;20409;-68
2022/03/17 10:08:45;;;;;;;38.80;33.47;;;14.00;99.90;;;;;;4994660;28;20514;-70
2022/03/17 10:11:18;;;;;;;38.40;34.20;;;14.00;99.90;;;;;;4994384;28;20424;-70
2022/03/17 10:13:46;;;;;;;38.33;34.27;;;14.00;99.90;;;;;;4993615;28;20468;-67
2022/03/17 10:16:21;;;;;;;43.23;34.70;;;14.00;99.90;;;;;;4994634;28;20418;-66
2022/03/17 10:18:59;;;;;;;36.90;32.40;;;13.80;99.90;;;;;;4994308;28;20442;-71
2022/03/17 10:21:26;;;;;;;40.87;34.47;;;14.10;99.90;;;;;;4994346;28;20479;-70
2022/03/17 10:23:54;;;;;;;38.60;31.03;;;14.30;99.90;;;;;;4993679;28;20449;-69
2022/03/17 10:26:46;;;;;;;40.00;31.00;;;14.20;99.90;;;;;;4992779;28;20416;-69
2022/03/17 10:29:24;;;;;;;39.80;34.57;;;14.30;99.90;;;;;;4994097;28;20776;-69
2022/03/17 10:32:09;;;;;;;36.33;32.43;;;14.20;99.90;;;;;;4992727;28;20440;-69
2022/03/17 10:34:56;;;;;;;39.07;34.17;;;14.30;99.90;;;;;;4992958;28;20921;-70
2022/03/17 10:37:24;;;;;;;36.63;30.83;;;14.30;99.90;;;;;;4993666;28;20427;-69
2022/03/17 10:39:52;;;;;;;42.53;32.03;;;14.10;99.90;;;;;;4993547;28;20404;-68
2022/03/17 10:42:20;;;;;;;38.47;33.00;;;14.20;99.90;;;;;;4994266;28;20416;-70
2022/03/17 10:44:51;;;;;;;44.83;34.40;;;13.80;99.90;;;;;;4993879;28;20944;-70
2022/03/17 10:47:28;;;;;;;38.70;31.70;;;13.80;99.90;;;;;;4994244;28;20429;-69
2022/03/17 10:50:10;;;;;;;34.97;31.17;;;14.10;99.90;;;;;;4992296;28;20412;-72
2022/03/17 10:52:52;;;;;;;34.90;29.73;;;14.10;99.90;;;;;;4993108;28;20523;-69
2022/03/17 10:55:25;;;;;;;39.80;35.13;;;13.90;99.90;;;;;;4993239;28;20398;-70
2022/03/17 10:57:53;;;;;;;39.43;34.20;;;13.90;99.90;;;;;;4993892;28;20426;-70
2022/03/17 11:00:21;;;;;;;37.37;32.60;;;14.10;99.90;;;;;;4993163;28;20435;-69
2022/03/17 11:02:49;;;;;;;38.60;33.83;;;14.20;99.90;;;;;;4993678;28;20913;-69
2022/03/17 11:05:17;;;;;;;35.27;31.47;;;14.00;99.90;;;;;;4993902;28;20443;-69
2022/03/17 11:07:44;;;;;;;37.60;33.47;;;14.00;99.90;;;;;;4993460;28;20433;-69
2022/03/17 11:10:10;;;;;;;38.87;31.60;;;14.00;99.90;;;;;;4992844;28;20409;-69
2022/03/17 11:12:37;;;;;;;37.10;33.20;;;13.70;99.90;;;;;;4993510;28;20529;-69
2022/03/17 11:15:03;;;;;;;41.47;36.20;;;13.50;99.90;;;;;;4997259;28;20407;-69
2022/03/17 11:17:46;;;;;;;40.30;35.93;;;13.60;99.90;;;;;;4997414;28;20435;-68
2022/03/17 11:20:12;;;;;;;39.40;34.03;;;13.30;99.90;;;;;;4997067;28;21096;-69
2022/03/17 11:22:39;;;;;;;41.43;36.57;;;13.10;99.90;;;;;;4997468;28;20472;-68
2022/03/17 11:25:32;;;;;;;43.23;35.77;;;12.80;99.90;;;;;;4997320;28;20422;-67
2022/03/17 11:27:59;;;;;;;44.13;34.40;;;12.90;99.90;;;;;;4997227;28;20456;-68
2022/03/17 11:30:57;;;;;;;50.60;37.40;;;13.10;99.90;;;;;;4995951;28;20461;-69
2022/03/17 11:33:36;;;;;;;42.07;35.57;;;13.20;99.90;;;;;;4996158;28;20482;-69
2022/03/17 11:36:16;;;;;;;39.20;33.87;;;13.20;99.90;;;;;;4997312;28;20875;-69
2022/03/17 11:41:28;;;;;;;35.90;30.73;;;13.10;99.90;;;;;;4997091;28;20414;-69
2022/03/17 11:43:53;;;;;;;39.17;33.33;;;13.10;99.90;;;;;;4997372;28;20412;-68
2022/03/17 11:46:21;;;;;;;36.13;30.23;;;13.00;99.90;;;;;;4996900;28;20408;-69
2022/03/17 11:48:54;;;;;;;39.20;32.07;;;13.00;99.90;;;;;;4996774;28;20517;-69
2022/03/17 11:51:21;;;;;;;37.40;32.50;;;13.00;99.90;;;;;;4997220;28;20450;-69
2022/03/17 11:54:02;;;;;;;39.70;32.93;;;12.90;99.90;;;;;;4996882;28;20864;-69
2022/03/17 11:56:42;;;;;;;42.60;34.03;;;12.70;99.90;;;;;;4996408;28;20864;-69
2022/03/17 11:59:14;;;;;;;38.40;32.40;;;12.60;99.90;;;;;;4997092;28;20480;-68
2022/03/17 12:01:41;;;;;;;44.70;35.87;;;12.60;99.90;;;;;;4996580;28;20398;-70
2022/03/17 12:04:17;;;;;;;46.13;37.10;;;12.50;99.90;;;;;;4997827;28;20942;-71
2022/03/17 12:06:53;;;;;;;42.97;35.03;;;12.30;99.90;;;;;;4996894;28;20381;-70
2022/03/17 12:09:39;;;;;;;41.73;33.13;;;12.40;99.90;;;;;;4996779;28;20396;-71
2022/03/17 12:12:23;;;;;;;41.83;35.73;;;12.30;99.90;;;;;;4996702;28;20977;-71
2022/03/17 12:14:53;;;;;;;47.80;36.13;;;12.30;99.90;;;;;;4996129;28;20916;-70
2022/03/17 12:17:21;;;;;;;44.23;36.63;;;12.40;99.90;;;;;;4996625;28;20489;-70
2022/03/17 12:19:51;;;;;;;41.17;36.17;;;12.30;99.90;;;;;;4996409;28;20415;-69
2022/03/17 12:22:18;;;;;;;41.10;35.90;;;12.20;99.90;;;;;;4996141;28;20906;-70
2022/03/17 12:24:58;;;;;;;46.10;37.47;;;12.30;99.90;;;;;;4995232;28;20903;-72
2022/03/17 12:27:32;;;;;;;41.17;34.57;;;12.30;99.90;;;;;;4995309;28;20821;-71
2022/03/17 12:30:08;;;;;;;43.70;36.10;;;12.30;99.90;;;;;;4995823;28;20779;-70
2022/03/17 12:32:39;;;;;;;44.70;34.60;;;12.30;99.90;;;;;;4996529;28;20801;-70
2022/03/17 12:35:07;;;;;;;40.37;34.23;;;12.30;99.90;;;;;;4996047;28;20427;-68
2022/03/17 12:37:34;;;;;;;53.30;38.67;;;12.50;99.90;;;;;;4996200;28;20779;-71
2022/03/17 12:40:06;;;;;;;42.40;36.37;;;12.50;99.90;;;;;;4994857;28;20541;-71
2022/03/17 12:42:38;;;;;;;42.93;34.37;;;12.40;99.90;;;;;;4995363;28;20448;-73
2022/03/17 12:45:09;;;;;;;43.23;34.63;;;12.50;99.90;;;;;;5027139;28;20411;-73
2022/03/17 12:47:38;;;;;;;43.13;36.40;;;12.80;99.90;;;;;;4995634;28;20446;-71
2022/03/17 12:50:08;;;;;;;44.10;35.97;;;13.00;99.90;;;;;;4995665;28;20436;-69
2022/03/17 12:52:35;;;;;;;44.03;35.63;;;13.00;99.90;;;;;;4995615;28;20531;-71